首页
METAR-TAF:

METAR-TAF

机场 :

阿拉木图国际机场

阿拉木圖, 哈萨克斯坦

纬度: 43-14N, 经度: 076-56E, 海拔: 847米

当前天气观测

该预报发布于42分钟前的22:30 UTC
风速4节,风向南转南东
温度 12°C
湿度 76%
气压 1008 hPa
能见度10公里或以上
少量云层高于10000英尺

METAR: UAAA 202230Z 15002MPS 9999 FEW100 12/08 Q1008 R88/65D NOSIG

时间: 05:12 (23:12 UTC)

预报

该预报发布于6小时和12分钟前的17:00 UTC
预报有效从20日的 18点(UTC)到 21日的 18点(UTC)
风速6节,风向
能见度10公里或以上
散云层高于5000英尺, 积雨云.
散云层高于10000英尺
成为
从 21日的 03点(UTC)到 21日的 04点(UTC)
风速8节,风向北转西北
几率 40% :
短暂存在
从 21日的 06点(UTC)到 21日的 12点(UTC)
雷暴
短暂存在
从 21日的 12点(UTC)到 21日的 18点(UTC)
风速12节,风向西转西南,有时为23节阵风
多云层高于3300英尺, 积雨云.
多云层高于10000英尺
雷暴, 小雨

TAF: UAAA 201700Z 2018/2118 18003MPS 9999 SCT050CB SCT100 TX30/2108Z TN12/2101Z BECMG 2103/2104 34004MPS PROB40 TEMPO 2106/2112 TS TEMPO 2112/2118 24006G12MPS -TSRA BKN033CB BKN100

超过4000个机场的气象观测和天气预报(METAR&TAF报告)。

可查询的气象台以黄色和红色小点在地图上表示。

将鼠标移到小点上方,可查看气象台名称。

然后点击查看天气观测和预报。

如需切换地图:点击带黑十字的绿色按钮放大地图;点击带横线的绿色按钮缩小地图;或者点击绿色箭头查看邻近地区的地图。


METAR-TAF: